createdAt,value
2023-12-10T00:00:25.094Z,17.95
2023-12-10T00:02:52.179Z,15.25
2023-12-10T00:05:19.363Z,17.02
2023-12-10T00:07:46.447Z,15.05
2023-12-10T00:10:13.636Z,18.17
2023-12-10T00:12:41.452Z,17.63
2023-12-10T00:15:09.274Z,16.42
2023-12-10T00:17:36.619Z,10.75
2023-12-10T00:20:04.504Z,22.15
2023-12-10T00:22:31.973Z,14.90
2023-12-10T00:24:59.341Z,19.00
2023-12-10T00:27:26.502Z,24.27
2023-12-10T00:29:54.531Z,17.48
2023-12-10T00:32:21.772Z,25.95
2023-12-10T00:34:49.158Z,22.02
2023-12-10T00:37:16.323Z,16.52
2023-12-10T00:39:43.520Z,17.15
2023-12-10T00:42:10.645Z,21.17
2023-12-10T00:44:37.949Z,22.73
2023-12-10T00:47:05.209Z,15.00
2023-12-10T00:49:32.387Z,20.83
2023-12-10T00:51:59.545Z,14.95
2023-12-10T00:54:26.685Z,20.63
2023-12-10T00:56:53.898Z,19.23
2023-12-10T00:59:20.988Z,13.88
2023-12-10T01:01:48.226Z,15.18
2023-12-10T01:04:15.734Z,18.23
2023-12-10T01:06:43.015Z,14.15
2023-12-10T01:09:10.408Z,11.75
2023-12-10T01:11:37.772Z,14.52
2023-12-10T01:14:04.982Z,16.95
2023-12-10T01:16:32.193Z,14.13
2023-12-10T01:18:59.363Z,13.95
2023-12-10T01:21:26.599Z,10.63
2023-12-10T01:23:56.162Z,18.05
2023-12-10T01:26:23.818Z,12.93
2023-12-10T01:28:51.104Z,16.38
2023-12-10T01:31:18.316Z,15.27
2023-12-10T01:33:45.967Z,10.52
2023-12-10T01:36:25.612Z,19.90
2023-12-10T01:38:53.646Z,13.05
2023-12-10T01:41:21.139Z,15.73
2023-12-10T01:43:48.361Z,18.85
2023-12-10T01:46:15.543Z,13.90
2023-12-10T01:48:43.708Z,18.85
2023-12-10T01:51:11.356Z,19.52
2023-12-10T01:53:39.599Z,15.13
2023-12-10T01:56:09.672Z,16.08
2023-12-10T01:58:37.874Z,14.70
2023-12-10T02:01:06.504Z,19.35
2023-12-10T02:03:34.596Z,19.23
2023-12-10T02:06:01.863Z,13.13
2023-12-10T02:08:29.041Z,14.13
2023-12-10T02:10:56.185Z,13.48
2023-12-10T02:13:24.102Z,16.17
2023-12-10T02:15:51.935Z,14.70
2023-12-10T02:18:21.361Z,19.98
2023-12-10T02:20:49.454Z,15.20
2023-12-10T02:23:22.584Z,17.23
2023-12-10T02:25:50.110Z,23.80
2023-12-10T02:28:23.421Z,15.82
2023-12-10T02:30:50.997Z,19.90
2023-12-10T02:33:18.516Z,22.02
2023-12-10T02:35:45.706Z,15.85
2023-12-10T02:38:12.917Z,21.15
2023-12-10T02:40:40.076Z,21.50
2023-12-10T02:43:07.227Z,18.75
2023-12-10T02:45:34.443Z,15.15
2023-12-10T02:48:01.823Z,23.95
2023-12-10T02:50:29.035Z,15.18
2023-12-10T02:52:56.197Z,19.23
2023-12-10T02:55:23.369Z,23.60
2023-12-10T02:57:51.045Z,25.88
2023-12-10T03:00:18.509Z,11.38
2023-12-10T03:02:45.776Z,14.55
2023-12-10T03:05:13.049Z,18.35
2023-12-10T03:07:40.205Z,16.05
2023-12-10T03:10:07.589Z,21.60
2023-12-10T03:12:34.798Z,18.50
2023-12-10T03:15:02.226Z,15.75
2023-12-10T03:17:29.465Z,13.80
2023-12-10T03:19:56.603Z,19.17
2023-12-10T03:22:23.678Z,18.85
2023-12-10T03:24:50.880Z,12.93
2023-12-10T03:27:18.132Z,15.00
2023-12-10T03:29:45.307Z,13.43
2023-12-10T03:32:12.439Z,12.00
2023-12-10T03:34:39.717Z,12.32
2023-12-10T03:37:06.975Z,15.05
2023-12-10T03:39:34.135Z,12.82
2023-12-10T03:42:01.275Z,7.15
2023-12-10T03:44:29.063Z,14.30
2023-12-10T03:46:56.255Z,12.25
2023-12-10T03:49:23.430Z,12.48
2023-12-10T03:51:50.661Z,17.73
2023-12-10T03:54:17.830Z,19.92
2023-12-10T03:56:44.920Z,23.30
2023-12-10T03:59:12.182Z,16.92
2023-12-10T04:01:42.966Z,15.68
2023-12-10T04:04:10.573Z,20.88
2023-12-10T04:06:40.225Z,11.43
2023-12-10T04:09:08.338Z,13.25
2023-12-10T04:11:35.734Z,11.02
2023-12-10T04:14:03.217Z,11.93
2023-12-10T04:16:33.657Z,18.73
2023-12-10T04:19:01.022Z,9.38
2023-12-10T04:21:28.319Z,13.05
2023-12-10T04:23:55.551Z,15.60
2023-12-10T04:26:23.060Z,15.52
2023-12-10T04:28:50.659Z,10.80
2023-12-10T04:31:17.825Z,16.55
2023-12-10T04:33:45.916Z,13.30
2023-12-10T04:36:14.667Z,23.42
2023-12-10T04:38:41.922Z,19.48
2023-12-10T04:41:09.028Z,15.98
2023-12-10T04:43:36.152Z,22.85
2023-12-10T04:46:03.241Z,20.63
2023-12-10T04:48:31.156Z,12.93
2023-12-10T04:50:58.331Z,12.77
2023-12-10T04:53:25.380Z,20.65
2023-12-10T04:55:52.714Z,16.88
2023-12-10T04:58:19.819Z,17.88
2023-12-10T05:00:47.176Z,15.60
2023-12-10T05:03:14.499Z,15.25
2023-12-10T05:05:41.753Z,20.90
2023-12-10T05:08:08.931Z,21.42
2023-12-10T05:10:36.114Z,17.85
2023-12-10T05:13:03.453Z,15.13
2023-12-10T05:15:30.667Z,13.50
2023-12-10T05:17:57.842Z,17.33
2023-12-10T05:20:25.017Z,13.50
2023-12-10T05:22:52.219Z,15.07
2023-12-10T05:25:19.330Z,13.07
2023-12-10T05:27:46.489Z,14.57
2023-12-10T05:30:13.901Z,20.30
2023-12-10T05:32:41.053Z,20.75
2023-12-10T05:35:08.303Z,14.60
2023-12-10T05:37:35.420Z,12.88
2023-12-10T05:40:03.631Z,14.95
2023-12-10T05:42:30.950Z,17.35
2023-12-10T05:44:58.418Z,15.25
2023-12-10T05:47:25.550Z,19.00
2023-12-10T05:49:52.818Z,16.80
2023-12-10T05:52:19.914Z,18.45
2023-12-10T05:54:47.040Z,10.65
2023-12-10T05:57:14.164Z,20.33
2023-12-10T05:59:41.277Z,29.80
2023-12-10T06:02:08.377Z,21.52
2023-12-10T06:04:35.702Z,20.45
2023-12-10T06:07:03.053Z,12.65
2023-12-10T06:09:30.382Z,18.70
2023-12-10T06:11:57.492Z,14.23
2023-12-10T06:14:24.652Z,22.13
2023-12-10T06:16:51.740Z,14.38
2023-12-10T06:19:19.014Z,17.98
2023-12-10T06:21:46.239Z,18.38
2023-12-10T06:24:13.496Z,18.70
2023-12-10T06:26:40.703Z,20.77
2023-12-10T06:29:08.213Z,24.52
2023-12-10T06:31:35.293Z,19.25
2023-12-10T06:34:02.534Z,19.60
2023-12-10T06:36:29.835Z,14.55
2023-12-10T06:38:56.924Z,25.08
2023-12-10T06:41:24.903Z,18.77
2023-12-10T06:43:52.074Z,20.23
2023-12-10T06:46:19.179Z,17.33
2023-12-10T06:48:46.426Z,11.73
2023-12-10T06:51:13.928Z,14.82
2023-12-10T06:53:44.074Z,17.70
2023-12-10T06:56:11.268Z,18.30
2023-12-10T06:58:38.409Z,20.00
2023-12-10T07:01:06.360Z,17.27
2023-12-10T07:03:33.775Z,19.90
2023-12-10T07:06:04.778Z,10.07
2023-12-10T07:08:32.353Z,18.25
2023-12-10T07:10:59.549Z,14.57
2023-12-10T07:13:26.638Z,16.83
2023-12-10T07:15:53.751Z,14.38
2023-12-10T07:18:21.077Z,16.70
2023-12-10T07:20:49.063Z,7.15
2023-12-10T07:23:16.185Z,15.73
2023-12-10T07:25:43.344Z,13.30
2023-12-10T07:28:10.585Z,21.40
2023-12-10T07:30:37.790Z,18.08
2023-12-10T07:33:05.032Z,12.55
2023-12-10T07:35:32.382Z,11.85
2023-12-10T07:37:59.510Z,11.10
2023-12-10T07:40:26.707Z,13.20
2023-12-10T07:42:53.852Z,8.85
2023-12-10T07:45:21.039Z,10.50
2023-12-10T07:47:48.504Z,15.38
2023-12-10T07:50:15.808Z,27.65
2023-12-10T07:52:43.017Z,22.13
2023-12-10T07:55:10.287Z,17.48
2023-12-10T07:57:37.442Z,21.80
2023-12-10T08:00:06.640Z,26.48
2023-12-10T08:02:34.009Z,21.63
2023-12-10T08:05:01.528Z,18.60
2023-12-10T08:07:28.677Z,15.20
2023-12-10T08:09:56.959Z,23.27
2023-12-10T08:12:24.212Z,22.90
2023-12-10T08:14:51.372Z,27.92
2023-12-10T08:17:18.450Z,23.92
2023-12-10T08:19:45.653Z,34.10
2023-12-10T08:22:14.870Z,25.35
2023-12-10T08:24:42.130Z,23.50
2023-12-10T08:27:09.429Z,27.40
2023-12-10T08:29:36.715Z,24.75
2023-12-10T08:32:04.009Z,34.17
2023-12-10T08:34:31.202Z,38.10
2023-12-10T08:36:58.507Z,28.45
2023-12-10T08:39:25.747Z,28.70
2023-12-10T08:41:52.897Z,24.50
2023-12-10T08:44:20.043Z,24.85
2023-12-10T08:46:47.212Z,24.85
2023-12-10T08:49:14.473Z,30.08
2023-12-10T08:51:41.683Z,23.45
2023-12-10T08:54:08.892Z,27.08
2023-12-10T08:56:35.976Z,24.45
2023-12-10T08:59:04.246Z,27.58
2023-12-10T09:01:31.723Z,20.42
2023-12-10T09:04:00.916Z,20.15
2023-12-10T09:06:28.191Z,20.80
2023-12-10T09:08:55.466Z,30.13
2023-12-10T09:11:22.625Z,26.27
2023-12-10T09:13:49.749Z,22.50
2023-12-10T09:16:21.302Z,30.02
2023-12-10T09:18:48.879Z,17.10
2023-12-10T09:21:16.228Z,17.67
2023-12-10T09:23:44.691Z,20.75
2023-12-10T09:26:11.857Z,21.98
2023-12-10T09:28:38.967Z,18.60
2023-12-10T09:31:06.105Z,20.52
2023-12-10T09:33:33.460Z,25.70
2023-12-10T09:36:01.049Z,16.33
2023-12-10T09:38:28.278Z,21.65
2023-12-10T09:40:55.396Z,20.23
2023-12-10T09:43:23.020Z,25.98
2023-12-10T09:45:50.163Z,21.35
2023-12-10T09:48:17.425Z,25.42
2023-12-10T09:50:44.634Z,21.23
2023-12-10T09:53:11.759Z,20.08
2023-12-10T09:55:39.425Z,16.35
2023-12-10T09:58:07.683Z,20.10
2023-12-10T10:00:35.130Z,29.17
2023-12-10T10:03:03.071Z,22.67
2023-12-10T10:05:30.392Z,25.10
2023-12-10T10:07:57.743Z,18.77
2023-12-10T10:10:26.604Z,22.45
2023-12-10T10:12:57.238Z,15.20
2023-12-10T10:15:31.537Z,15.52
2023-12-10T10:18:02.020Z,19.33
2023-12-10T10:20:29.222Z,21.13
2023-12-10T10:22:56.485Z,11.85
2023-12-10T10:25:23.978Z,18.98
2023-12-10T10:27:51.731Z,24.55
2023-12-10T10:30:19.080Z,13.10
2023-12-10T10:32:47.068Z,13.70
2023-12-10T10:35:14.284Z,23.17
2023-12-10T10:37:43.535Z,18.60
2023-12-10T10:40:11.602Z,14.38
2023-12-10T10:42:39.051Z,18.77
2023-12-10T10:45:06.512Z,15.25
2023-12-10T10:47:34.621Z,17.02
2023-12-10T10:50:20.886Z,18.73
2023-12-10T10:52:51.483Z,14.70
2023-12-10T10:55:19.464Z,18.90
2023-12-10T10:57:46.578Z,21.77
2023-12-10T11:00:20.634Z,24.65
2023-12-10T11:02:48.816Z,16.33
2023-12-10T11:05:16.670Z,16.70
2023-12-10T11:07:44.001Z,16.83
2023-12-10T11:10:11.210Z,14.48
2023-12-10T11:12:41.237Z,16.10
2023-12-10T11:15:28.814Z,23.13
2023-12-10T11:17:56.144Z,17.73
2023-12-10T11:20:42.359Z,19.83
2023-12-10T11:23:10.789Z,22.38
2023-12-10T11:25:38.382Z,10.15
2023-12-10T11:28:11.533Z,10.57
2023-12-10T11:30:39.344Z,15.52
2023-12-10T11:33:06.843Z,13.88
2023-12-10T11:35:34.122Z,14.25
2023-12-10T11:38:01.301Z,12.73
2023-12-10T11:40:28.663Z,16.60
2023-12-10T11:42:55.879Z,11.77
2023-12-10T11:45:23.142Z,15.05
2023-12-10T11:47:52.958Z,13.63
2023-12-10T11:50:20.855Z,10.45
2023-12-10T11:52:48.195Z,18.75
2023-12-10T11:55:15.395Z,16.58
2023-12-10T11:57:43.922Z,17.58
2023-12-10T12:00:12.764Z,11.23
2023-12-10T12:02:46.692Z,11.07
2023-12-10T12:05:17.327Z,10.90
2023-12-10T12:07:45.612Z,15.50
2023-12-10T12:10:14.223Z,16.65
2023-12-10T12:12:42.144Z,15.73
2023-12-10T12:15:11.028Z,15.57
2023-12-10T12:17:38.528Z,15.20
2023-12-10T12:20:15.907Z,14.95
2023-12-10T12:22:45.644Z,12.70
2023-12-10T12:25:13.943Z,15.65
2023-12-10T12:27:41.233Z,12.50
2023-12-10T12:30:08.605Z,13.40
2023-12-10T12:32:35.838Z,15.52
2023-12-10T12:35:03.241Z,8.98
2023-12-10T12:37:30.735Z,11.93
2023-12-10T12:40:02.045Z,12.55
2023-12-10T12:42:31.760Z,13.80
2023-12-10T12:44:59.010Z,14.90
2023-12-10T12:47:26.420Z,14.48
2023-12-10T12:49:53.876Z,17.20
2023-12-10T12:52:21.154Z,13.18
2023-12-10T12:54:48.400Z,9.55
2023-12-10T12:57:15.959Z,14.32
2023-12-10T12:59:43.141Z,10.63
2023-12-10T13:02:10.610Z,7.45
2023-12-10T13:04:38.020Z,10.68
2023-12-10T13:07:05.437Z,10.40
2023-12-10T13:09:32.723Z,9.68
2023-12-10T13:11:59.922Z,12.35
2023-12-10T13:14:27.150Z,10.25
2023-12-10T13:16:54.314Z,10.02
2023-12-10T13:19:21.836Z,10.38
2023-12-10T13:21:51.499Z,9.13
2023-12-10T13:24:18.822Z,10.80
2023-12-10T13:26:46.037Z,13.88
2023-12-10T13:29:13.207Z,7.30
2023-12-10T13:31:40.307Z,13.13
2023-12-10T13:34:07.896Z,7.93
2023-12-10T13:36:35.556Z,10.77
2023-12-10T13:39:04.367Z,14.45
2023-12-10T13:41:31.574Z,12.45
2023-12-10T13:43:58.748Z,10.82
2023-12-10T13:46:26.893Z,13.30
2023-12-10T13:48:54.442Z,12.73
2023-12-10T13:51:21.861Z,11.50
2023-12-10T13:53:49.214Z,13.30
2023-12-10T13:56:16.666Z,16.95
2023-12-10T13:58:43.837Z,13.05
2023-12-10T14:01:11.229Z,10.13
2023-12-10T14:03:38.577Z,11.00
2023-12-10T14:06:08.678Z,12.63
2023-12-10T14:08:35.845Z,17.02
2023-12-10T14:11:03.003Z,10.95
2023-12-10T14:13:30.118Z,15.52
2023-12-10T14:15:57.342Z,11.77
2023-12-10T14:18:24.610Z,11.02
2023-12-10T14:20:52.153Z,17.02
2023-12-10T14:23:19.308Z,13.20
2023-12-10T14:25:46.437Z,11.23
2023-12-10T14:28:13.675Z,13.57
2023-12-10T14:30:41.713Z,15.13
2023-12-10T14:33:09.110Z,13.27
2023-12-10T14:35:36.681Z,13.32
2023-12-10T14:38:04.033Z,12.57
2023-12-10T14:40:31.296Z,15.00
2023-12-10T14:42:58.471Z,8.07
2023-12-10T14:45:25.801Z,14.18
2023-12-10T14:47:53.155Z,9.43
2023-12-10T14:50:20.419Z,13.43
2023-12-10T14:52:47.963Z,8.48
2023-12-10T14:55:17.208Z,17.77
2023-12-10T14:57:47.024Z,11.30
2023-12-10T15:00:14.379Z,10.98
2023-12-10T15:02:41.465Z,11.43
2023-12-10T15:05:08.751Z,13.35
2023-12-10T15:07:42.617Z,12.60
2023-12-10T15:10:11.130Z,12.75
2023-12-10T15:12:38.595Z,10.30
2023-12-10T15:15:06.916Z,12.05
2023-12-10T15:17:34.523Z,8.77
2023-12-10T15:20:01.884Z,9.15
2023-12-10T15:22:29.022Z,19.98
2023-12-10T15:24:56.178Z,8.98
2023-12-10T15:27:23.505Z,8.60
2023-12-10T15:29:50.736Z,14.30
2023-12-10T15:32:17.886Z,8.75
2023-12-10T15:34:45.060Z,13.63
2023-12-10T15:37:12.520Z,17.67
2023-12-10T15:39:39.706Z,11.48
2023-12-10T15:42:06.869Z,15.82
2023-12-10T15:44:34.041Z,13.70
2023-12-10T15:47:01.160Z,9.20
2023-12-10T15:49:28.380Z,17.17
2023-12-10T15:51:55.711Z,11.27
2023-12-10T15:54:22.855Z,10.40
2023-12-10T15:56:49.956Z,11.95
2023-12-10T15:59:17.127Z,14.02
2023-12-10T16:01:44.409Z,18.77
2023-12-10T16:04:11.638Z,14.13
2023-12-10T16:06:38.875Z,13.32
2023-12-10T16:09:06.229Z,19.02
2023-12-10T16:11:34.212Z,13.02
2023-12-10T16:14:01.344Z,11.50
2023-12-10T16:16:28.527Z,17.75
2023-12-10T16:18:55.874Z,18.70
2023-12-10T16:21:23.197Z,22.48
2023-12-10T16:23:50.593Z,17.25
2023-12-10T16:26:18.103Z,17.45
2023-12-10T16:28:45.472Z,15.23
2023-12-10T16:31:12.869Z,18.63
2023-12-10T16:33:40.128Z,23.23
2023-12-10T16:36:07.465Z,33.53
2023-12-10T16:38:34.602Z,19.48
2023-12-10T16:41:01.850Z,20.52
2023-12-10T16:43:29.028Z,19.40
2023-12-10T16:45:56.545Z,15.43
2023-12-10T16:48:24.859Z,19.52
2023-12-10T16:50:52.951Z,17.13
2023-12-10T16:53:20.019Z,22.77
2023-12-10T16:55:50.052Z,15.05
2023-12-10T16:58:17.432Z,19.42
2023-12-10T17:00:44.697Z,18.98
2023-12-10T17:03:13.144Z,14.95
2023-12-10T17:05:40.317Z,11.05
2023-12-10T17:08:10.426Z,19.13
2023-12-10T17:10:37.632Z,19.05
2023-12-10T17:13:04.876Z,12.52
2023-12-10T17:15:32.151Z,20.77
2023-12-10T17:17:59.521Z,13.35
2023-12-10T17:20:26.753Z,17.80
2023-12-10T17:22:53.974Z,18.83
2023-12-10T17:25:21.059Z,17.95
2023-12-10T17:27:49.105Z,13.50
2023-12-10T17:30:17.743Z,13.82
2023-12-10T17:32:44.993Z,18.85
2023-12-10T17:35:12.251Z,12.55
2023-12-10T17:37:39.445Z,12.80
2023-12-10T17:40:06.932Z,9.63
2023-12-10T17:42:34.119Z,16.55
2023-12-10T17:45:01.220Z,13.50
2023-12-10T17:47:28.687Z,14.65
2023-12-10T17:49:56.153Z,16.65
2023-12-10T17:52:23.569Z,17.70
2023-12-10T17:54:50.786Z,13.05
2023-12-10T17:57:17.895Z,17.65
2023-12-10T17:59:44.963Z,14.90
2023-12-10T18:02:12.194Z,17.75
2023-12-10T18:04:39.410Z,15.98
2023-12-10T18:07:06.612Z,15.48
2023-12-10T18:09:34.201Z,14.95
2023-12-10T18:12:01.430Z,16.30
2023-12-10T18:14:28.571Z,11.27
2023-12-10T18:16:56.800Z,14.13
2023-12-10T18:19:24.094Z,20.80
2023-12-10T18:21:51.963Z,16.92
2023-12-10T18:24:19.150Z,13.80
2023-12-10T18:26:48.676Z,15.77
2023-12-10T18:29:16.020Z,17.05
2023-12-10T18:31:43.531Z,14.48
2023-12-10T18:34:10.787Z,11.30
2023-12-10T18:36:38.074Z,15.88
2023-12-10T18:39:05.198Z,17.05
2023-12-10T18:41:32.310Z,18.35
2023-12-10T18:43:59.395Z,14.65
2023-12-10T18:46:26.523Z,15.77
2023-12-10T18:48:53.739Z,13.85
2023-12-10T18:51:20.928Z,10.50
2023-12-10T18:53:48.001Z,13.27
2023-12-10T18:56:15.320Z,7.30
2023-12-10T18:58:42.550Z,20.33
2023-12-10T19:01:09.777Z,12.10
2023-12-10T19:03:37.069Z,14.77
2023-12-10T19:06:04.694Z,11.02
2023-12-10T19:08:31.796Z,11.25
2023-12-10T19:10:58.900Z,14.77
2023-12-10T19:13:26.008Z,10.82
2023-12-10T19:15:57.456Z,10.02
2023-12-10T19:18:26.289Z,9.90
2023-12-10T19:20:53.481Z,7.60
2023-12-10T19:23:20.615Z,11.73
2023-12-10T19:25:47.715Z,9.68
2023-12-10T19:28:14.954Z,7.47
2023-12-10T19:30:42.148Z,7.20
2023-12-10T19:33:09.733Z,13.60
2023-12-10T19:35:37.096Z,5.70
2023-12-10T19:38:04.198Z,8.80
2023-12-10T19:40:31.434Z,8.68
2023-12-10T19:42:58.503Z,4.40
2023-12-10T19:45:25.966Z,3.70
2023-12-10T19:47:53.497Z,7.88
2023-12-10T19:50:20.987Z,10.65
2023-12-10T19:52:48.530Z,8.45
2023-12-10T19:55:18.682Z,10.77
2023-12-10T19:57:47.256Z,7.40
2023-12-10T20:00:14.595Z,8.73
2023-12-10T20:02:41.694Z,9.25
2023-12-10T20:05:10.255Z,6.63
2023-12-10T20:07:37.808Z,5.45
2023-12-10T20:10:05.243Z,5.53
2023-12-10T20:12:32.714Z,9.63
2023-12-10T20:14:59.889Z,4.97
2023-12-10T20:17:29.160Z,3.13
2023-12-10T20:19:56.695Z,5.07
2023-12-10T20:22:23.872Z,8.60
2023-12-10T20:24:56.613Z,5.88
2023-12-10T20:27:29.695Z,4.10
2023-12-10T20:29:57.427Z,6.80
2023-12-10T20:32:25.466Z,6.93
2023-12-10T20:34:52.796Z,6.05
2023-12-10T20:37:20.004Z,6.47
2023-12-10T20:39:47.398Z,5.90
2023-12-10T20:42:14.654Z,7.10
2023-12-10T20:44:41.846Z,8.35
2023-12-10T20:47:10.860Z,6.47
2023-12-10T20:49:38.106Z,7.60
2023-12-10T20:52:05.788Z,7.10
2023-12-10T20:54:33.035Z,9.35
2023-12-10T20:57:00.219Z,8.38
2023-12-10T20:59:27.433Z,13.43
2023-12-10T21:01:54.594Z,9.52
2023-12-10T21:04:22.166Z,10.82
2023-12-10T21:06:52.876Z,14.25
2023-12-10T21:09:20.569Z,10.90
2023-12-10T21:11:47.860Z,11.90
2023-12-10T21:14:14.984Z,13.55
2023-12-10T21:16:42.514Z,14.07
2023-12-10T21:19:09.691Z,11.63
2023-12-10T21:21:36.927Z,15.05
2023-12-10T21:24:04.250Z,10.90
2023-12-10T21:26:36.373Z,11.48
2023-12-10T21:29:04.009Z,9.30
2023-12-10T21:31:31.243Z,16.52
2023-12-10T21:33:59.292Z,17.17
2023-12-10T21:36:26.604Z,11.23
2023-12-10T21:38:53.748Z,11.25
2023-12-10T21:41:20.836Z,10.80
2023-12-10T21:43:47.978Z,11.70
2023-12-10T21:46:15.085Z,14.77
2023-12-10T21:48:42.556Z,14.57
2023-12-10T21:51:09.717Z,17.17
2023-12-10T21:53:39.195Z,17.20
2023-12-10T21:56:06.873Z,25.00
2023-12-10T21:58:34.078Z,13.80
2023-12-10T22:01:01.379Z,14.88
2023-12-10T22:03:30.057Z,15.82
2023-12-10T22:05:58.479Z,14.35
2023-12-10T22:08:25.628Z,13.18
2023-12-10T22:10:54.428Z,16.48
2023-12-10T22:13:23.226Z,14.10
2023-12-10T22:15:50.335Z,11.27
2023-12-10T22:18:17.517Z,18.38
2023-12-10T22:20:44.785Z,14.90
2023-12-10T22:23:11.842Z,13.80
2023-12-10T22:25:38.955Z,15.15
2023-12-10T22:28:06.080Z,19.52
2023-12-10T22:30:33.230Z,17.73
2023-12-10T22:33:00.503Z,16.10
2023-12-10T22:35:28.568Z,14.50
2023-12-10T22:37:55.728Z,12.90
2023-12-10T22:40:23.024Z,18.35
2023-12-10T22:42:50.164Z,16.00
2023-12-10T22:45:17.322Z,17.90
2023-12-10T22:47:44.722Z,14.98
2023-12-10T22:50:12.102Z,19.98
2023-12-10T22:52:39.320Z,18.48
2023-12-10T22:55:07.133Z,23.20
2023-12-10T22:57:34.294Z,17.73
2023-12-10T23:00:01.513Z,19.42
2023-12-10T23:02:28.715Z,18.33
2023-12-10T23:05:02.534Z,19.90
2023-12-10T23:07:29.918Z,16.98
2023-12-10T23:09:57.169Z,16.65
2023-12-10T23:12:24.280Z,17.83
2023-12-10T23:14:51.433Z,30.88
2023-12-10T23:17:18.586Z,16.83
2023-12-10T23:19:47.260Z,14.32
2023-12-10T23:22:14.492Z,22.33
2023-12-10T23:24:41.805Z,23.77
2023-12-10T23:27:08.972Z,22.58
2023-12-10T23:29:36.086Z,23.50
2023-12-10T23:32:03.355Z,17.85
2023-12-10T23:34:30.487Z,21.08
2023-12-10T23:36:57.715Z,25.80
2023-12-10T23:39:24.827Z,21.10
2023-12-10T23:41:51.981Z,19.90
2023-12-10T23:44:19.159Z,15.80
2023-12-10T23:46:46.646Z,24.40
2023-12-10T23:49:13.928Z,20.08
2023-12-10T23:51:41.254Z,23.83
2023-12-10T23:54:08.388Z,28.77
2023-12-10T23:56:35.450Z,27.30
2023-12-10T23:59:02.509Z,23.77
